createdAt,value
2023-01-04T00:03:31.522Z,7.38
2023-01-04T00:08:28.572Z,6.94
2023-01-04T00:13:25.396Z,7.31
2023-01-04T00:18:22.335Z,7.47
2023-01-04T00:23:19.762Z,7.51
2023-01-04T00:28:17.264Z,7.42
2023-01-04T00:33:17.644Z,7.46
2023-01-04T00:38:14.402Z,7.30
2023-01-04T00:43:11.875Z,6.88
2023-01-04T00:48:08.675Z,7.40
2023-01-04T00:53:05.489Z,7.49
2023-01-04T00:58:02.340Z,7.40
2023-01-04T01:03:00.120Z,7.21
2023-01-04T01:07:57.192Z,7.44
2023-01-04T01:12:54.360Z,7.44
2023-01-04T01:17:51.114Z,7.43
2023-01-04T01:22:48.595Z,7.27
2023-01-04T01:27:45.350Z,7.21
2023-01-04T01:32:42.181Z,7.29
2023-01-04T01:37:38.965Z,7.21
2023-01-04T01:42:36.541Z,7.02
2023-01-04T01:47:40.081Z,6.84
2023-01-04T01:52:38.891Z,7.17
2023-01-04T01:57:37.688Z,7.21
2023-01-04T02:02:34.861Z,7.20
2023-01-04T02:07:32.267Z,7.01
2023-01-04T02:12:29.117Z,6.72
2023-01-04T02:17:37.874Z,6.63
2023-01-04T02:23:03.219Z,7.05
2023-01-04T02:28:06.472Z,6.78
2023-01-04T02:33:18.779Z,6.83
2023-01-04T02:38:22.691Z,6.49
2023-01-04T02:43:45.170Z,6.72
2023-01-04T02:49:00.797Z,6.70
2023-01-04T02:54:00.531Z,6.79
2023-01-04T02:59:12.228Z,6.78
2023-01-04T03:04:43.397Z,6.84
2023-01-04T03:09:47.205Z,6.83
2023-01-04T03:14:48.016Z,6.57
2023-01-04T03:19:51.157Z,6.79
2023-01-04T03:25:06.121Z,6.64
2023-01-04T03:30:25.917Z,7.00
2023-01-04T03:35:38.143Z,7.00
2023-01-04T03:40:54.564Z,7.00
2023-01-04T03:46:14.965Z,6.96
2023-01-04T03:51:16.430Z,6.96
2023-01-04T03:56:14.974Z,6.95
2023-01-04T04:01:12.963Z,6.96
2023-01-04T04:06:28.139Z,6.85
2023-01-04T04:11:31.851Z,6.81
2023-01-04T04:16:28.856Z,6.89
2023-01-04T04:21:25.742Z,7.01
2023-01-04T04:26:23.342Z,6.91
2023-01-04T04:31:20.790Z,6.99
2023-01-04T04:36:17.738Z,6.78
2023-01-04T04:41:29.452Z,7.23
2023-01-04T04:46:27.657Z,7.46
2023-01-04T04:51:24.701Z,7.70
2023-01-04T04:56:21.575Z,7.92
2023-01-04T05:01:18.856Z,8.03
2023-01-04T05:06:16.414Z,8.36
2023-01-04T05:11:14.107Z,8.53
2023-01-04T05:16:11.135Z,8.54
2023-01-04T05:21:08.068Z,8.68
2023-01-04T05:26:05.861Z,8.69
2023-01-04T05:31:02.850Z,7.95
2023-01-04T05:36:02.079Z,7.75
2023-01-04T05:40:58.962Z,6.88
2023-01-04T05:45:56.830Z,6.97
2023-01-04T05:50:54.045Z,6.99
2023-01-04T05:55:51.157Z,7.01
2023-01-04T06:00:49.939Z,6.81
2023-01-04T06:05:49.999Z,6.24
2023-01-04T06:10:55.575Z,6.51
2023-01-04T06:15:52.418Z,7.06
2023-01-04T06:21:01.818Z,6.97
2023-01-04T06:25:58.655Z,6.86
2023-01-04T06:30:58.312Z,7.14
2023-01-04T06:35:56.745Z,7.39
2023-01-04T06:40:53.640Z,7.46
2023-01-04T06:45:50.520Z,7.49
2023-01-04T06:50:47.596Z,7.48
2023-01-04T06:55:50.073Z,7.94
2023-01-04T07:00:47.051Z,8.17
2023-01-04T07:05:45.461Z,7.71
2023-01-04T07:10:44.173Z,8.59
2023-01-04T07:15:41.866Z,8.84
2023-01-04T07:20:39.295Z,8.78
2023-01-04T07:25:36.407Z,9.37
2023-01-04T07:30:33.470Z,9.53
2023-01-04T07:35:31.358Z,9.56
2023-01-04T07:40:28.223Z,9.99
2023-01-04T07:45:25.625Z,10.08
2023-01-04T07:50:22.443Z,10.24
2023-01-04T07:55:19.882Z,10.07
2023-01-04T08:00:17.105Z,10.15
2023-01-04T08:05:14.004Z,9.96
2023-01-04T08:10:10.816Z,9.58
2023-01-04T08:15:09.147Z,9.17
2023-01-04T08:20:07.309Z,8.92
2023-01-04T08:25:06.432Z,8.67
2023-01-04T08:30:03.981Z,8.48
2023-01-04T08:35:01.639Z,8.63
2023-01-04T08:39:58.496Z,8.65
2023-01-04T08:44:59.654Z,8.85
2023-01-04T08:49:57.291Z,8.92
2023-01-04T08:54:54.898Z,8.84
2023-01-04T08:59:52.265Z,8.99
2023-01-04T09:04:49.636Z,8.92
2023-01-04T09:09:46.626Z,9.27
2023-01-04T09:14:44.161Z,9.14
2023-01-04T09:19:43.871Z,9.46
2023-01-04T09:24:40.755Z,9.69
2023-01-04T09:29:37.846Z,9.97
2023-01-04T09:34:35.361Z,9.77
2023-01-04T09:39:32.209Z,10.30
2023-01-04T09:45:21.081Z,10.88
2023-01-04T09:50:00.252Z,11.20
2023-01-04T09:55:04.768Z,11.39
2023-01-04T10:00:24.799Z,11.61
2023-01-04T10:05:26.094Z,11.55
2023-01-04T10:10:41.650Z,11.04
2023-01-04T10:15:44.859Z,11.03
2023-01-04T10:26:25.019Z,11.29
2023-01-04T10:31:39.474Z,11.07
2023-01-04T10:36:38.956Z,11.45
2023-01-04T10:41:40.515Z,11.25
2023-01-04T10:46:44.919Z,11.00
2023-01-04T10:51:51.301Z,10.47
2023-01-04T10:57:00.164Z,10.39
2023-01-04T11:02:08.198Z,10.56
2023-01-04T11:07:12.031Z,10.36
2023-01-04T11:12:13.069Z,10.00
2023-01-04T11:17:11.832Z,10.11
2023-01-04T11:22:17.545Z,9.65
2023-01-04T11:27:23.602Z,9.87
2023-01-04T11:32:34.150Z,9.68
2023-01-04T11:37:33.338Z,9.45
2023-01-04T11:42:31.143Z,9.41
2023-01-04T11:47:29.890Z,9.23
2023-01-04T11:52:33.523Z,9.22
2023-01-04T11:57:30.280Z,9.17
2023-01-04T12:07:44.481Z,9.16
2023-01-04T12:12:41.261Z,8.76
2023-01-04T12:17:50.356Z,9.18
2023-01-04T12:22:47.815Z,9.28
2023-01-04T12:27:47.587Z,9.33
2023-01-04T12:32:45.922Z,9.37
2023-01-04T12:37:48.682Z,8.95
2023-01-04T12:43:22.739Z,9.28
2023-01-04T12:48:52.269Z,9.21
2023-01-04T12:53:50.950Z,8.68
2023-01-04T13:04:40.676Z,9.17
2023-01-04T13:09:48.189Z,9.14
2023-01-04T13:14:50.051Z,8.93
2023-01-04T13:19:47.691Z,8.84
2023-01-04T13:24:46.721Z,9.05
2023-01-04T13:29:44.201Z,8.68
2023-01-04T13:34:49.944Z,8.74
2023-01-04T13:39:47.662Z,8.90
2023-01-04T13:45:24.024Z,8.87
2023-01-04T13:50:33.398Z,8.80
2023-01-04T13:55:34.453Z,8.64
2023-01-04T14:00:58.858Z,8.57
2023-01-04T14:06:13.315Z,8.25
2023-01-04T14:11:44.467Z,8.62
2023-01-04T14:16:44.614Z,8.44
2023-01-04T14:21:43.586Z,8.09
2023-01-04T14:26:43.103Z,8.24
2023-01-04T14:31:40.243Z,7.91
2023-01-04T14:36:40.236Z,8.35
2023-01-04T14:41:40.069Z,7.80
2023-01-04T14:46:37.376Z,8.25
2023-01-04T14:51:38.451Z,8.40
2023-01-04T14:56:41.410Z,8.34
2023-01-04T15:01:39.328Z,8.48
2023-01-04T15:06:36.648Z,8.38
2023-01-04T15:11:33.731Z,8.40
2023-01-04T15:16:31.464Z,8.23
2023-01-04T15:21:28.972Z,8.52
2023-01-04T15:26:26.910Z,8.51
2023-01-04T15:31:31.243Z,8.11
2023-01-04T15:36:34.580Z,8.36
2023-01-04T15:41:51.707Z,7.75
2023-01-04T15:46:52.002Z,8.09
2023-01-04T15:51:50.492Z,8.14
2023-01-04T15:56:49.481Z,8.09
2023-01-04T16:01:47.045Z,7.47
2023-01-04T16:06:44.308Z,8.19
2023-01-04T16:11:58.985Z,8.28
2023-01-04T16:16:56.871Z,8.24
2023-01-04T16:21:59.519Z,8.11
2023-01-04T16:26:57.995Z,8.26
2023-01-04T16:31:55.230Z,8.46
2023-01-04T16:36:52.089Z,7.96
2023-01-04T16:41:49.474Z,8.85
2023-01-04T16:46:47.748Z,9.19
2023-01-04T16:51:47.631Z,8.91
2023-01-04T16:56:48.740Z,8.78
2023-01-04T17:02:08.054Z,9.16
2023-01-04T17:07:06.056Z,8.73
2023-01-04T17:17:24.547Z,8.51
2023-01-04T17:22:30.672Z,8.24
2023-01-04T17:27:31.184Z,8.81
2023-01-04T17:32:32.541Z,8.80
2023-01-04T17:37:29.459Z,8.54
2023-01-04T17:42:26.394Z,8.46
2023-01-04T17:47:23.313Z,8.52
2023-01-04T17:52:30.429Z,8.33
2023-01-04T17:57:28.745Z,8.47
2023-01-04T18:02:25.626Z,8.13
2023-01-04T18:07:24.870Z,7.89
2023-01-04T18:12:22.055Z,8.24
2023-01-04T18:17:19.225Z,8.22
2023-01-04T18:22:16.857Z,7.84
2023-01-04T18:27:23.610Z,7.51
2023-01-04T18:32:22.292Z,7.66
2023-01-04T18:37:19.524Z,7.92
2023-01-04T18:42:17.421Z,7.48
2023-01-04T18:47:14.401Z,7.56
2023-01-04T18:52:11.523Z,7.73
2023-01-04T18:57:08.611Z,7.66
2023-01-04T19:02:06.683Z,7.49
2023-01-04T19:07:03.967Z,7.23
2023-01-04T19:12:03.207Z,7.14
2023-01-04T19:17:05.303Z,6.68
2023-01-04T19:22:10.055Z,7.32
2023-01-04T19:27:11.120Z,6.57
2023-01-04T19:32:08.142Z,7.19
2023-01-04T19:37:08.624Z,7.36
2023-01-04T19:42:05.782Z,7.52
2023-01-04T19:47:05.905Z,7.92
2023-01-04T19:52:05.770Z,7.51
2023-01-04T19:57:02.734Z,8.14
2023-01-04T20:02:01.945Z,7.86
2023-01-04T20:06:59.032Z,8.28
2023-01-04T20:11:59.861Z,8.53
2023-01-04T20:17:02.121Z,8.50
2023-01-04T20:22:02.302Z,8.49
2023-01-04T20:27:02.378Z,8.61
2023-01-04T20:32:02.790Z,8.56
2023-01-04T20:37:02.271Z,8.52
2023-01-04T20:42:17.913Z,8.74
2023-01-04T20:47:18.912Z,9.04
2023-01-04T20:52:17.746Z,9.21
2023-01-04T20:57:15.596Z,9.10
2023-01-04T21:02:12.999Z,9.05
2023-01-04T21:07:12.420Z,9.37
2023-01-04T21:12:09.381Z,8.94
2023-01-04T21:17:08.183Z,9.25
2023-01-04T21:22:05.205Z,9.23
2023-01-04T21:27:02.198Z,9.61
2023-01-04T21:31:59.127Z,9.57
2023-01-04T21:36:56.820Z,9.29
2023-01-04T21:41:56.378Z,9.20
2023-01-04T21:46:53.441Z,9.78
2023-01-04T21:51:50.389Z,9.55
2023-01-04T21:56:47.917Z,9.83
2023-01-04T22:01:44.944Z,9.86
2023-01-04T22:06:41.811Z,9.56
2023-01-04T22:11:40.248Z,9.90
2023-01-04T22:16:37.912Z,9.58
2023-01-04T22:21:34.728Z,9.93
2023-01-04T22:26:31.691Z,9.94
2023-01-04T22:31:28.562Z,9.95
2023-01-04T22:36:26.591Z,9.47
2023-01-04T22:41:24.895Z,9.55
2023-01-04T22:46:21.873Z,9.95
2023-01-04T22:51:20.314Z,9.56
2023-01-04T22:56:21.329Z,9.93
2023-01-04T23:01:18.715Z,9.75
2023-01-04T23:06:15.716Z,9.80
2023-01-04T23:11:14.866Z,9.73
2023-01-04T23:16:14.703Z,9.56
2023-01-04T23:21:12.226Z,9.73
2023-01-04T23:26:12.771Z,9.45
2023-01-04T23:31:13.250Z,9.62
2023-01-04T23:36:12.192Z,9.32
2023-01-04T23:41:10.739Z,9.26
2023-01-04T23:46:08.344Z,9.45
2023-01-04T23:51:07.887Z,9.27
2023-01-04T23:56:07.031Z,9.29
